Time;durP1;ratioP1;P1;durP2;ratioP2;P2;SDS_P1;SDS_P2;PMS_P1;PMS_P2;Temp;Humidity;BMP_temperature;BMP_pressure;BME280_temperature;BME280_humidity;BME280_pressure;Samples;Min_cycle;Max_cycle;Signal;HPM_P1;HPM_P2
2023/01/02 00:01:13;;;;;;;12.13;8.15;;;11.20;99.90;;;;;;5014411;28;20084;-82
2023/01/02 00:03:38;;;;;;;17.65;9.45;;;11.20;99.90;;;;;;5040203;28;20117;-83
2023/01/02 00:06:05;;;;;;;13.05;8.40;;;11.20;99.90;;;;;;5052064;28;20108;-83
2023/01/02 00:08:31;;;;;;;12.32;8.15;;;11.30;99.90;;;;;;5033337;28;20067;-83
2023/01/02 00:10:56;;;;;;;17.05;8.90;;;11.30;99.90;;;;;;5034057;28;20021;-83
2023/01/02 00:13:22;;;;;;;15.27;7.80;;;11.40;99.90;;;;;;5050517;28;20524;-84
2023/01/02 00:15:48;;;;;;;15.52;7.90;;;11.30;99.90;;;;;;5033871;28;20051;-83
2023/01/02 00:18:14;;;;;;;11.43;7.00;;;11.40;99.90;;;;;;5051915;28;20082;-84
2023/01/02 00:20:39;;;;;;;11.48;7.20;;;11.40;99.90;;;;;;5051776;28;20490;-83
2023/01/02 00:23:05;;;;;;;12.75;6.78;;;11.40;99.90;;;;;;5033661;28;20020;-83
2023/01/02 00:25:33;;;;;;;9.52;6.60;;;11.40;99.90;;;;;;5034205;28;20079;-83
2023/01/02 00:27:59;;;;;;;12.18;7.40;;;11.50;99.90;;;;;;5033860;28;20013;-83
2023/01/02 00:30:25;;;;;;;9.88;5.93;;;11.50;99.90;;;;;;5033854;28;20175;-83
2023/01/02 00:32:50;;;;;;;9.85;6.25;;;11.50;99.90;;;;;;5051806;28;20530;-83
2023/01/02 00:35:16;;;;;;;10.80;5.90;;;11.50;99.90;;;;;;5033050;28;20057;-84
2023/01/02 00:37:41;;;;;;;10.50;6.85;;;11.50;99.90;;;;;;5033813;28;20029;-84
2023/01/02 00:40:12;;;;;;;9.02;6.22;;;11.50;99.90;;;;;;5033902;28;20025;-84
2023/01/02 00:42:38;;;;;;;7.80;5.07;;;11.60;99.90;;;;;;5051810;28;20068;-84
2023/01/02 00:45:05;;;;;;;9.52;6.20;;;11.60;99.90;;;;;;5033630;28;20017;-83
2023/01/02 00:47:30;;;;;;;10.98;6.07;;;11.60;99.90;;;;;;5033397;28;20395;-84
2023/01/02 00:49:56;;;;;;;10.23;5.20;;;11.60;99.90;;;;;;5051620;28;20028;-84
2023/01/02 00:52:21;;;;;;;7.35;5.65;;;11.60;99.90;;;;;;5051665;28;20028;-84
2023/01/02 00:54:47;;;;;;;7.47;5.38;;;11.60;99.90;;;;;;5051337;28;20110;-83
2023/01/02 00:57:12;;;;;;;8.82;5.43;;;11.60;99.90;;;;;;5033419;28;20028;-83
2023/01/02 00:59:38;;;;;;;7.53;4.95;;;11.60;99.90;;;;;;5051356;28;20056;-84
2023/01/02 01:02:03;;;;;;;6.35;5.15;;;11.60;99.90;;;;;;5037635;28;20498;-83
2023/01/02 01:04:32;;;;;;;9.25;5.32;;;11.70;99.90;;;;;;5055756;28;20056;-84
2023/01/02 01:06:58;;;;;;;11.18;5.18;;;11.60;99.90;;;;;;5033226;28;20024;-84
2023/01/02 01:09:24;;;;;;;8.57;4.97;;;11.60;99.90;;;;;;5051171;28;20091;-85
2023/01/02 01:11:49;;;;;;;8.73;5.65;;;11.60;99.90;;;;;;5033004;28;20025;-84
2023/01/02 01:14:15;;;;;;;10.32;5.95;;;11.70;99.90;;;;;;5051416;28;20402;-84
2023/01/02 01:16:40;;;;;;;12.73;7.28;;;11.70;99.90;;;;;;5033382;28;20129;-85
2023/01/02 01:19:06;;;;;;;10.48;6.03;;;11.70;99.90;;;;;;5051133;28;20390;-85
2023/01/02 01:21:32;;;;;;;11.18;6.20;;;11.70;99.90;;;;;;5033347;28;20031;-84
2023/01/02 01:23:57;;;;;;;9.10;5.93;;;11.70;99.90;;;;;;5051149;28;20028;-84
2023/01/02 01:26:23;;;;;;;8.43;5.57;;;11.80;99.90;;;;;;5050957;28;20534;-83
2023/01/02 01:28:52;;;;;;;10.88;6.78;;;11.80;99.90;;;;;;5051500;28;20021;-84
2023/01/02 01:31:18;;;;;;;11.48;6.05;;;11.80;99.90;;;;;;5050985;28;20025;-84
2023/01/02 01:33:44;;;;;;;9.63;5.53;;;11.80;99.90;;;;;;5051039;28;20181;-85
2023/01/02 01:36:15;;;;;;;10.68;6.10;;;11.80;99.90;;;;;;5050909;28;20041;-85
2023/01/02 01:38:41;;;;;;;15.88;6.38;;;11.90;99.90;;;;;;5050786;28;20040;-85
2023/01/02 01:41:08;;;;;;;17.25;6.32;;;11.90;99.90;;;;;;5032923;28;20024;-85
2023/01/02 01:43:44;;;;;;;12.50;6.68;;;11.90;99.90;;;;;;5033190;28;20021;-86
2023/01/02 01:46:34;;;;;;;11.02;6.50;;;11.90;99.90;;;;;;5051338;28;20054;-84
2023/01/02 01:49:13;;;;;;;10.85;6.15;;;11.90;99.90;;;;;;5050977;28;20032;-84
2023/01/02 01:52:04;;;;;;;9.20;5.47;;;11.90;99.90;;;;;;5051057;28;20119;-83
2023/01/02 01:54:37;;;;;;;15.20;6.20;;;11.90;99.90;;;;;;5021388;28;20117;-84
2023/01/02 01:57:05;;;;;;;;;;;11.80;99.90;;;;;;5017323;28;20116;-83
2023/01/02 01:59:33;;;;;;;11.43;5.53;;;11.80;99.90;;;;;;5052112;28;19954;-84
2023/01/02 02:01:58;;;;;;;10.82;5.80;;;11.70;99.90;;;;;;5054394;28;20463;-85
2023/01/02 02:04:25;;;;;;;11.35;6.13;;;11.70;99.90;;;;;;5054503;28;20040;-84
2023/01/02 02:06:52;;;;;;;10.73;5.95;;;11.70;99.90;;;;;;5036366;28;20067;-84
2023/01/02 02:09:39;;;;;;;11.98;6.07;;;11.70;99.90;;;;;;5036463;28;20097;-84
2023/01/02 02:12:06;;;;;;;13.30;6.28;;;11.60;99.90;;;;;;5034292;28;20026;-84
2023/01/02 02:14:33;;;;;;;12.48;6.75;;;11.60;99.90;;;;;;5016699;28;20039;-83
2023/01/02 02:17:57;;;;;;;11.60;5.57;;;11.60;99.90;;;;;;5034390;28;20476;-84
2023/01/02 02:21:03;;;;;;;13.48;5.97;;;11.60;99.90;;;;;;4968042;28;20151;-84
2023/01/02 02:24:11;;;;;;;9.40;5.90;;;11.60;99.90;;;;;;4999836;28;20503;-84
2023/01/02 02:26:55;;;;;;;13.20;6.47;;;11.70;99.90;;;;;;4947104;28;20098;-83
2023/01/02 02:29:49;;;;;;;11.30;6.20;;;11.70;99.90;;;;;;5016358;28;20030;-84
2023/01/02 02:32:39;;;;;;;11.50;5.88;;;11.70;99.90;;;;;;5016190;28;20108;-84
2023/01/02 02:35:29;;;;;;;11.95;5.35;;;11.70;99.90;;;;;;5016307;28;20053;-84
2023/01/02 02:38:09;;;;;;;11.20;4.43;;;11.70;99.90;;;;;;5029668;28;20104;-84
2023/01/02 02:40:57;;;;;;;10.55;5.18;;;11.70;99.90;;;;;;5016483;28;20021;-85
2023/01/02 02:43:46;;;;;;;6.10;4.13;;;11.70;99.90;;;;;;5033994;28;20024;-84
2023/01/02 02:46:24;;;;;;;10.48;5.32;;;11.80;99.90;;;;;;5034503;28;20021;-84
2023/01/02 02:49:07;;;;;;;11.07;5.55;;;11.80;99.90;;;;;;5033928;28;20048;-85
2023/01/02 02:51:45;;;;;;;10.53;5.07;;;11.80;99.90;;;;;;5034109;28;20476;-84
2023/01/02 02:54:17;;;;;;;13.60;6.07;;;11.80;99.90;;;;;;5016086;28;20026;-84
2023/01/02 02:56:43;;;;;;;11.70;5.88;;;11.80;99.90;;;;;;5033878;28;20041;-84
2023/01/02 02:59:10;;;;;;;9.48;5.30;;;11.80;99.90;;;;;;5016162;28;20488;-84
2023/01/02 03:01:36;;;;;;;10.38;5.07;;;11.80;99.90;;;;;;5033778;28;20041;-84
2023/01/02 03:04:04;;;;;;;9.85;5.18;;;11.80;99.90;;;;;;5015679;28;20022;-84
2023/01/02 03:06:56;;;;;;;9.70;5.20;;;11.80;99.90;;;;;;5015853;28;20026;-84
2023/01/02 03:09:42;;;;;;;11.15;5.20;;;11.80;99.90;;;;;;5015551;28;20017;-83
2023/01/02 03:12:13;;;;;;;7.50;4.82;;;11.90;99.90;;;;;;5033048;28;20037;-84
2023/01/02 03:15:23;;;;;;;9.65;4.82;;;11.80;99.90;;;;;;5033730;28;20022;-84
2023/01/02 03:18:03;;;;;;;10.85;4.80;;;11.80;99.90;;;;;;4989538;28;20053;-83
2023/01/02 03:20:37;;;;;;;12.10;5.45;;;11.80;99.90;;;;;;5033157;28;20022;-84
2023/01/02 03:23:18;;;;;;;10.38;5.03;;;11.80;99.90;;;;;;5033367;28;20070;-84
2023/01/02 03:25:45;;;;;;;12.07;4.72;;;11.80;99.90;;;;;;5032567;28;20022;-83
2023/01/02 03:28:15;;;;;;;12.82;5.85;;;11.80;99.90;;;;;;5015573;28;20021;-84
2023/01/02 03:30:42;;;;;;;10.82;4.63;;;11.80;99.90;;;;;;5033407;28;20028;-84
2023/01/02 03:33:24;;;;;;;10.73;4.65;;;11.90;99.90;;;;;;5033252;28;20091;-84
2023/01/02 03:35:54;;;;;;;10.00;4.40;;;11.90;99.90;;;;;;5033050;28;20407;-84
2023/01/02 03:38:39;;;;;;;9.40;5.30;;;11.90;99.90;;;;;;5015359;28;20014;-85
2023/01/02 03:41:20;;;;;;;8.35;5.15;;;11.90;99.90;;;;;;5033443;28;20472;-84
2023/01/02 03:43:49;;;;;;;10.63;5.55;;;12.00;99.90;;;;;;5033047;28;20022;-84
2023/01/02 03:46:21;;;;;;;8.45;4.88;;;12.00;99.90;;;;;;5033462;28;20032;-84
2023/01/02 03:48:53;;;;;;;11.48;6.40;;;12.00;99.90;;;;;;5015435;28;20518;-84
2023/01/02 03:51:19;;;;;;;9.48;4.75;;;12.00;99.90;;;;;;5032887;28;20111;-84
2023/01/02 03:53:45;;;;;;;11.13;4.93;;;12.00;99.90;;;;;;5015180;28;20022;-84
2023/01/02 03:56:33;;;;;;;9.52;4.78;;;12.00;99.90;;;;;;5015183;28;20037;-84
2023/01/02 03:59:05;;;;;;;10.82;5.20;;;12.00;99.90;;;;;;5015316;28;20036;-83
2023/01/02 04:01:56;;;;;;;10.82;5.28;;;12.10;99.90;;;;;;5032866;28;20017;-84
2023/01/02 04:04:31;;;;;;;9.65;4.90;;;12.00;99.90;;;;;;5014234;28;20488;-84
2023/01/02 04:07:02;;;;;;;10.10;4.55;;;12.10;99.90;;;;;;5032630;28;20040;-84
2023/01/02 04:09:30;;;;;;;7.57;5.00;;;12.10;99.90;;;;;;5014878;28;20025;-85
2023/01/02 04:12:02;;;;;;;12.00;4.68;;;12.00;99.90;;;;;;5032693;28;20018;-84
2023/01/02 04:14:40;;;;;;;14.70;6.03;;;12.00;99.90;;;;;;5014928;28;20399;-85
2023/01/02 04:17:09;;;;;;;8.80;5.35;;;12.10;99.90;;;;;;5014947;28;20041;-85
2023/01/02 04:19:43;;;;;;;8.23;5.00;;;12.10;99.90;;;;;;5032622;28;20034;-84
2023/01/02 04:22:15;;;;;;;9.73;4.75;;;12.10;99.90;;;;;;5014283;28;20391;-84
2023/01/02 04:24:45;;;;;;;7.40;4.60;;;12.10;99.90;;;;;;5014647;28;20049;-84
2023/01/02 04:27:20;;;;;;;8.45;4.05;;;12.10;99.90;;;;;;5032335;28;20395;-84
2023/01/02 04:29:46;;;;;;;8.30;4.03;;;12.10;99.90;;;;;;5014807;28;20022;-84
2023/01/02 04:32:21;;;;;;;8.60;4.50;;;12.10;99.90;;;;;;5032064;28;20041;-85
2023/01/02 04:34:48;;;;;;;9.93;4.93;;;12.10;99.90;;;;;;5014360;28;20049;-83
2023/01/02 04:37:30;;;;;;;10.30;5.10;;;12.00;99.90;;;;;;5031977;28;20037;-83
2023/01/02 04:40:00;;;;;;;12.65;4.85;;;12.10;99.90;;;;;;5032207;28;20035;-83
2023/01/02 04:42:26;;;;;;;7.63;4.90;;;12.10;99.90;;;;;;5032344;28;20022;-84
2023/01/02 04:44:51;;;;;;;9.15;4.13;;;12.10;99.90;;;;;;5032193;28;20033;-84
2023/01/02 04:47:17;;;;;;;11.60;5.80;;;12.10;99.90;;;;;;5032202;28;20021;-84
2023/01/02 04:49:42;;;;;;;9.48;4.50;;;12.10;99.90;;;;;;5031833;28;20033;-84
2023/01/02 04:52:08;;;;;;;7.03;4.15;;;12.10;99.90;;;;;;5031054;28;20021;-83
2023/01/02 04:54:33;;;;;;;6.22;4.13;;;12.10;99.90;;;;;;5014098;28;20083;-84
2023/01/02 04:56:59;;;;;;;7.20;4.22;;;12.00;99.90;;;;;;5032204;28;20100;-84
2023/01/02 04:59:25;;;;;;;7.70;4.30;;;12.10;99.90;;;;;;5032188;28;20021;-83
2023/01/02 05:01:50;;;;;;;7.80;4.03;;;12.10;99.90;;;;;;5032068;28;20025;-84
2023/01/02 05:04:17;;;;;;;7.88;4.30;;;12.10;99.90;;;;;;5032009;28;20053;-84
2023/01/02 05:06:43;;;;;;;12.25;4.50;;;12.00;99.90;;;;;;5031809;28;20499;-84
2023/01/02 05:09:09;;;;;;;11.05;5.00;;;12.10;99.90;;;;;;5013991;28;20018;-85
2023/01/02 05:11:34;;;;;;;8.43;4.72;;;12.00;99.90;;;;;;5013808;28;20120;-84
2023/01/02 05:14:00;;;;;;;7.57;4.22;;;12.10;99.90;;;;;;5014246;28;20013;-84
2023/01/02 05:16:25;;;;;;;8.93;4.65;;;12.10;99.90;;;;;;5014100;28;20061;-84
2023/01/02 05:18:51;;;;;;;8.95;4.35;;;12.00;99.90;;;;;;5031664;28;20034;-85
2023/01/02 05:24:02;;;;;;;9.80;4.95;;;12.00;99.90;;;;;;5031936;28;20095;-84
2023/01/02 05:26:31;;;;;;;9.35;4.78;;;12.10;99.90;;;;;;5031883;28;20123;-84
2023/01/02 05:28:57;;;;;;;9.70;4.65;;;12.10;99.90;;;;;;5031840;28;20049;-83
2023/01/02 05:31:23;;;;;;;9.32;4.75;;;12.10;99.90;;;;;;5031940;28;20076;-84
2023/01/02 05:33:56;;;;;;;9.13;5.03;;;12.10;99.90;;;;;;5032148;28;20037;-84
2023/01/02 05:36:23;;;;;;;8.15;4.75;;;12.10;99.90;;;;;;5032413;28;20045;-84
2023/01/02 05:38:49;;;;;;;9.38;4.85;;;12.10;99.90;;;;;;5032709;28;20025;-84
2023/01/02 05:41:15;;;;;;;10.65;4.43;;;12.10;99.90;;;;;;5032325;28;20029;-85
2023/01/02 05:43:41;;;;;;;7.50;4.80;;;12.10;99.90;;;;;;5015079;28;20152;-85
2023/01/02 05:46:18;;;;;;;9.40;4.38;;;12.10;99.90;;;;;;5033182;28;20041;-85
2023/01/02 05:48:45;;;;;;;12.27;4.72;;;12.10;99.90;;;;;;5032666;28;20478;-84
2023/01/02 05:51:13;;;;;;;10.27;4.93;;;12.20;99.90;;;;;;5032592;28;20021;-85
2023/01/02 05:53:39;;;;;;;6.65;4.72;;;12.10;99.90;;;;;;5032265;28;20072;-84
2023/01/02 05:56:14;;;;;;;8.18;4.10;;;12.20;99.90;;;;;;5014793;28;20128;-85
2023/01/02 05:58:43;;;;;;;7.88;4.25;;;12.10;99.90;;;;;;5032498;28;20057;-86
2023/01/02 06:01:11;;;;;;;8.63;3.78;;;12.20;99.90;;;;;;5014777;28;20083;-85
2023/01/02 06:03:37;;;;;;;8.27;4.30;;;12.20;99.90;;;;;;5014391;28;20018;-86
2023/01/02 06:06:08;;;;;;;10.43;4.28;;;12.20;99.90;;;;;;5032215;28;20373;-85
2023/01/02 06:08:35;;;;;;;8.50;4.28;;;12.20;99.90;;;;;;5014463;28;20555;-85
2023/01/02 06:11:01;;;;;;;6.88;3.63;;;12.20;99.90;;;;;;5037950;28;20036;-85
2023/01/02 06:13:31;;;;;;;9.38;4.15;;;12.20;99.90;;;;;;5052181;28;20032;-86
2023/01/02 06:15:58;;;;;;;6.82;4.25;;;12.20;99.90;;;;;;5052155;28;20036;-84
2023/01/02 06:18:24;;;;;;;10.60;5.10;;;12.20;99.90;;;;;;5050569;28;20082;-84
2023/01/02 06:20:50;;;;;;;7.15;4.18;;;12.20;99.90;;;;;;5052443;28;20029;-84
2023/01/02 06:23:15;;;;;;;9.75;4.55;;;12.20;99.90;;;;;;5051109;28;20486;-84
2023/01/02 06:25:41;;;;;;;9.70;5.35;;;12.20;99.90;;;;;;5050462;28;20075;-84
2023/01/02 06:28:07;;;;;;;7.78;4.57;;;12.10;99.90;;;;;;5049985;28;20020;-83
2023/01/02 06:30:33;;;;;;;7.28;4.25;;;12.10;99.90;;;;;;5051610;28;20029;-84
2023/01/02 06:32:58;;;;;;;9.10;4.57;;;12.10;99.90;;;;;;5050980;28;20478;-83
2023/01/02 06:35:24;;;;;;;10.27;4.55;;;12.00;99.90;;;;;;5057800;28;20128;-84
2023/01/02 06:37:49;;;;;;;7.53;4.35;;;12.00;99.90;;;;;;5052321;28;20033;-83
2023/01/02 06:40:16;;;;;;;7.05;4.60;;;12.00;99.90;;;;;;5041035;28;20024;-84
2023/01/02 06:42:44;;;;;;;8.45;4.47;;;12.00;99.90;;;;;;5053530;28;20031;-84
2023/01/02 06:45:10;;;;;;;9.75;4.70;;;12.00;99.90;;;;;;5035270;28;20033;-85
2023/01/02 06:47:36;;;;;;;4.97;3.05;;;11.90;99.90;;;;;;5035491;28;20033;-84
2023/01/02 06:50:02;;;;;;;3.33;1.98;;;11.80;99.90;;;;;;5035591;28;20025;-84
2023/01/02 06:52:28;;;;;;;2.22;1.20;;;11.40;99.90;;;;;;5053321;28;20083;-84
2023/01/02 06:54:54;;;;;;;1.25;0.90;;;11.20;99.90;;;;;;5036469;28;20028;-84
2023/01/02 06:57:19;;;;;;;1.70;0.80;;;11.00;99.90;;;;;;5060191;28;20192;-83
2023/01/02 06:59:45;;;;;;;0.52;0.40;;;10.80;99.90;;;;;;5036283;28;20079;-84
2023/01/02 07:02:11;;;;;;;0.52;0.40;;;10.80;99.90;;;;;;5054652;28;20032;-84
2023/01/02 07:04:37;;;;;;;0.50;0.30;;;10.60;99.90;;;;;;5036569;28;20017;-83
2023/01/02 07:07:03;;;;;;;0.30;0.28;;;10.50;99.90;;;;;;5036328;28;20509;-83
2023/01/02 07:09:28;;;;;;;1.67;0.40;;;10.40;99.90;;;;;;5054334;28;20059;-83
2023/01/02 07:11:54;;;;;;;0.88;0.50;;;10.30;99.90;;;;;;5053576;28;20424;-83
2023/01/02 07:14:20;;;;;;;0.60;0.47;;;10.30;99.90;;;;;;5035953;28;20021;-83
2023/01/02 07:16:45;;;;;;;0.65;0.38;;;10.30;99.90;;;;;;5052893;28;20041;-84
2023/01/02 07:19:11;;;;;;;0.60;0.50;;;10.30;99.90;;;;;;5053385;28;20458;-83
2023/01/02 07:21:36;;;;;;;1.73;0.70;;;10.20;99.90;;;;;;5053760;28;20032;-84
2023/01/02 07:24:02;;;;;;;1.52;0.95;;;10.20;99.90;;;;;;5053228;28;20028;-84
2023/01/02 07:26:28;;;;;;;1.13;0.70;;;10.20;99.90;;;;;;5035383;28;20017;-83
2023/01/02 07:28:53;;;;;;;1.48;0.90;;;10.10;99.90;;;;;;5033656;28;20025;-83
2023/01/02 07:31:19;;;;;;;2.60;1.38;;;10.10;99.90;;;;;;5035266;28;20029;-84
2023/01/02 07:33:46;;;;;;;2.42;1.83;;;10.10;99.90;;;;;;5053329;28;20141;-84
2023/01/02 07:36:16;;;;;;;2.55;1.83;;;10.10;99.90;;;;;;5034634;28;20456;-83
2023/01/02 07:38:42;;;;;;;2.80;2.13;;;10.10;99.90;;;;;;5053011;28;20375;-84
2023/01/02 07:41:16;;;;;;;3.03;2.25;;;10.00;99.90;;;;;;5053129;28;20433;-84
2023/01/02 07:43:43;;;;;;;3.35;2.40;;;10.10;99.90;;;;;;5035226;28;20051;-83
2023/01/02 07:46:10;;;;;;;4.57;3.10;;;10.00;99.90;;;;;;5053335;28;20052;-83
2023/01/02 07:48:35;;;;;;;3.45;2.65;;;10.00;99.90;;;;;;5034649;28;20074;-82
2023/01/02 07:51:05;;;;;;;5.78;4.28;;;10.10;99.90;;;;;;5052497;28;20396;-82
2023/01/02 07:53:31;;;;;;;4.70;3.75;;;10.00;99.90;;;;;;5034739;28;20021;-83
2023/01/02 07:55:58;;;;;;;4.90;3.85;;;10.00;99.90;;;;;;5034123;28;20064;-82
2023/01/02 07:58:24;;;;;;;6.05;4.45;;;10.00;99.90;;;;;;5052320;28;20079;-83
2023/01/02 08:00:50;;;;;;;6.55;4.70;;;10.00;99.90;;;;;;5052556;28;20091;-83
2023/01/02 08:03:16;;;;;;;6.97;5.32;;;10.00;99.90;;;;;;5052626;28;20494;-83
2023/01/02 08:05:42;;;;;;;8.35;5.30;;;10.10;99.90;;;;;;5052493;28;20096;-82
2023/01/02 08:08:09;;;;;;;7.45;5.45;;;10.10;99.90;;;;;;5034456;28;20095;-84
2023/01/02 08:10:36;;;;;;;8.27;6.50;;;10.00;99.90;;;;;;5052168;28;20063;-83
2023/01/02 08:13:03;;;;;;;11.10;7.88;;;10.00;99.90;;;;;;5034384;28;20017;-83
2023/01/02 08:15:29;;;;;;;10.65;7.68;;;10.00;99.90;;;;;;5052364;28;20127;-84
2023/01/02 08:17:56;;;;;;;10.30;7.07;;;10.00;99.90;;;;;;5033986;28;20804;-84
2023/01/02 08:20:22;;;;;;;12.80;8.90;;;10.00;99.90;;;;;;5034128;28;20036;-83
2023/01/02 08:22:48;;;;;;;13.88;11.18;;;10.00;99.90;;;;;;5034058;28;20016;-83
2023/01/02 08:25:13;;;;;;;14.85;11.13;;;10.00;99.90;;;;;;5034177;28;20029;-84
2023/01/02 08:27:39;;;;;;;17.15;12.70;;;10.00;99.90;;;;;;5051783;28;20375;-85
2023/01/02 08:30:05;;;;;;;17.17;13.23;;;10.00;99.90;;;;;;5034337;28;20021;-83
2023/01/02 08:32:35;;;;;;;17.13;13.27;;;10.00;99.90;;;;;;5033563;28;20039;-82
2023/01/02 08:35:01;;;;;;;20.73;16.15;;;10.00;99.90;;;;;;5051424;28;20037;-84
2023/01/02 08:37:27;;;;;;;20.23;15.77;;;10.00;99.90;;;;;;5051304;28;20059;-85
2023/01/02 08:39:52;;;;;;;18.17;15.18;;;9.90;99.90;;;;;;5051166;28;20067;-84
2023/01/02 08:42:18;;;;;;;17.98;14.98;;;9.90;99.90;;;;;;5033832;28;20083;-84
2023/01/02 08:44:44;;;;;;;17.55;14.55;;;10.00;99.90;;;;;;5051275;28;20366;-85
2023/01/02 08:47:10;;;;;;;17.17;13.75;;;9.90;99.90;;;;;;5033688;28;20029;-84
2023/01/02 08:49:35;;;;;;;17.00;13.82;;;9.90;99.90;;;;;;5033454;28;20082;-83
2023/01/02 08:52:01;;;;;;;14.77;12.32;;;10.00;99.90;;;;;;5033331;28;20027;-83
2023/01/02 08:54:26;;;;;;;18.30;14.20;;;10.00;99.90;;;;;;5033757;28;20047;-83
2023/01/02 08:56:52;;;;;;;17.23;13.73;;;10.00;99.90;;;;;;5032616;28;20090;-83
2023/01/02 08:59:18;;;;;;;16.00;11.35;;;9.90;99.90;;;;;;5050842;28;20029;-84
2023/01/02 09:01:43;;;;;;;14.27;10.00;;;9.90;99.90;;;;;;5032960;28;20074;-83
2023/01/02 09:04:10;;;;;;;12.23;8.48;;;9.80;99.90;;;;;;5051151;28;20064;-83
2023/01/02 09:06:36;;;;;;;11.02;7.25;;;9.80;99.90;;;;;;5032770;28;20155;-83
2023/01/02 09:09:03;;;;;;;9.65;7.15;;;9.70;99.90;;;;;;5035512;28;20021;-83
2023/01/02 09:11:35;;;;;;;10.82;7.65;;;9.70;99.90;;;;;;5037166;28;20033;-83
2023/01/02 09:14:01;;;;;;;8.90;6.72;;;9.70;99.90;;;;;;5054889;28;20750;-84
2023/01/02 09:16:28;;;;;;;9.30;6.40;;;9.60;99.90;;;;;;5054972;28;20045;-84
2023/01/02 09:18:59;;;;;;;8.63;5.95;;;9.70;99.90;;;;;;5055030;28;20499;-84
2023/01/02 09:21:25;;;;;;;9.20;6.32;;;9.60;99.90;;;;;;5054599;28;20113;-81
2023/01/02 09:23:51;;;;;;;8.35;5.38;;;9.60;99.90;;;;;;5036702;28;20406;-81
2023/01/02 09:26:17;;;;;;;8.45;5.72;;;9.60;99.90;;;;;;5036896;28;20013;-82
2023/01/02 09:28:43;;;;;;;9.93;6.18;;;9.70;99.90;;;;;;5054654;28;20025;-81
2023/01/02 09:31:14;;;;;;;8.82;6.38;;;9.60;99.90;;;;;;5054431;28;20108;-82
2023/01/02 09:33:41;;;;;;;10.82;7.50;;;9.60;99.90;;;;;;5054538;28;20033;-83
2023/01/02 09:36:09;;;;;;;10.43;7.55;;;9.60;99.90;;;;;;5036065;28;20499;-84
2023/01/02 09:38:35;;;;;;;13.35;10.13;;;9.70;99.90;;;;;;5036283;28;20475;-84
2023/01/02 09:41:32;;;;;;;12.25;9.50;;;9.60;99.90;;;;;;5036428;28;20056;-84
2023/01/02 09:44:10;;;;;;;11.13;8.65;;;9.60;99.90;;;;;;5049391;28;20122;-83
2023/01/02 09:46:56;;;;;;;9.38;7.63;;;9.60;99.90;;;;;;5054514;28;20021;-83
2023/01/02 09:49:27;;;;;;;8.80;6.80;;;9.50;99.90;;;;;;5054164;28;20033;-84
2023/01/02 09:51:54;;;;;;;7.75;5.82;;;9.50;99.90;;;;;;5036302;28;20106;-84
2023/01/02 09:54:27;;;;;;;8.80;5.95;;;9.50;99.90;;;;;;5054052;28;20025;-84
2023/01/02 09:57:23;;;;;;;6.97;4.65;;;9.50;99.90;;;;;;5035879;28;20051;-83
2023/01/02 10:00:20;;;;;;;8.07;4.10;;;9.50;99.90;;;;;;5043467;28;20033;-83
2023/01/02 10:02:46;;;;;;;6.47;3.83;;;9.50;99.90;;;;;;5036261;28;20087;-86
2023/01/02 10:05:28;;;;;;;7.95;3.67;;;9.50;99.90;;;;;;5053929;28;20479;-83
2023/01/02 10:07:59;;;;;;;6.45;3.53;;;9.50;99.90;;;;;;5053232;28;20033;-83
2023/01/02 10:10:37;;;;;;;6.00;3.13;;;9.50;99.90;;;;;;5048827;28;20554;-83
2023/01/02 10:13:06;;;;;;;8.50;3.58;;;9.50;99.90;;;;;;5035721;28;20472;-83
2023/01/02 10:15:33;;;;;;;7.95;3.13;;;9.50;99.90;;;;;;5035657;28;20072;-85
2023/01/02 10:18:28;;;;;;;5.45;2.95;;;9.40;99.90;;;;;;5035637;28;20483;-85
2023/01/02 10:21:17;;;;;;;4.63;2.80;;;9.40;99.90;;;;;;5050322;28;20071;-82
2023/01/02 10:24:01;;;;;;;5.88;2.83;;;9.40;99.90;;;;;;5052756;28;20117;-83
2023/01/02 10:26:37;;;;;;;9.05;2.53;;;9.40;99.90;;;;;;5033035;28;20451;-83
2023/01/02 10:29:16;;;;;;;5.32;1.95;;;9.40;99.90;;;;;;5051870;28;20021;-83
2023/01/02 10:31:50;;;;;;;5.78;2.15;;;9.50;99.90;;;;;;5017127;28;20029;-82
2023/01/02 10:34:22;;;;;;;6.07;2.35;;;9.50;99.90;;;;;;5029060;28;20029;-83
2023/01/02 10:36:48;;;;;;;5.68;2.00;;;9.50;99.90;;;;;;5053529;28;20033;-82
2023/01/02 10:39:21;;;;;;;5.75;2.10;;;9.60;99.90;;;;;;5041820;28;20032;-83
2023/01/02 10:41:51;;;;;;;5.93;2.75;;;9.60;99.90;;;;;;5035208;28;20013;-83
2023/01/02 10:44:32;;;;;;;4.05;2.13;;;9.70;99.90;;;;;;5035361;28;20037;-83
2023/01/02 10:47:10;;;;;;;4.10;2.22;;;9.70;99.90;;;;;;5035155;28;20060;-83
2023/01/02 10:49:37;;;;;;;5.10;2.63;;;9.80;99.90;;;;;;5035324;28;20039;-83
2023/01/02 10:52:17;;;;;;;6.13;3.20;;;9.80;99.90;;;;;;5034119;28;20023;-83
2023/01/02 10:54:56;;;;;;;4.80;2.38;;;9.80;99.90;;;;;;5035111;28;20028;-83
2023/01/02 10:57:35;;;;;;;5.85;3.30;;;9.90;99.90;;;;;;5053017;28;20479;-82
2023/01/02 11:00:03;;;;;;;7.20;3.65;;;9.90;99.90;;;;;;5052614;28;20017;-84
2023/01/02 11:02:41;;;;;;;5.28;2.65;;;9.90;99.90;;;;;;5052779;28;20020;-82
2023/01/02 11:05:19;;;;;;;7.53;2.70;;;9.90;99.90;;;;;;5034995;28;20112;-83
2023/01/02 11:07:48;;;;;;;5.68;2.33;;;9.90;99.90;;;;;;5034703;28;20032;-83
2023/01/02 11:10:32;;;;;;;4.53;1.90;;;9.90;99.90;;;;;;5034433;28;20017;-84
2023/01/02 11:13:02;;;;;;;6.22;2.40;;;9.80;99.90;;;;;;5034762;28;20103;-83
2023/01/02 11:15:33;;;;;;;7.05;2.33;;;9.90;99.90;;;;;;5052394;28;20112;-83
2023/01/02 11:18:01;;;;;;;6.50;2.13;;;9.90;99.90;;;;;;5052467;28;20033;-84
2023/01/02 11:20:32;;;;;;;5.50;2.95;;;9.90;99.90;;;;;;5014979;28;20030;-84
2023/01/02 11:23:01;;;;;;;5.97;2.90;;;10.00;99.90;;;;;;5043261;28;20029;-84
2023/01/02 11:25:39;;;;;;;3.97;2.42;;;10.00;99.90;;;;;;5034790;28;20051;-84
2023/01/02 11:28:05;;;;;;;3.90;2.17;;;10.10;99.90;;;;;;5035766;28;20033;-85
2023/01/02 11:30:45;;;;;;;5.88;2.70;;;10.10;99.90;;;;;;5052309;28;20062;-83
2023/01/02 11:33:18;;;;;;;4.40;2.42;;;10.10;99.90;;;;;;5034773;28;20033;-83
2023/01/02 11:35:52;;;;;;;5.63;2.28;;;10.10;99.90;;;;;;5052621;28;20143;-84
2023/01/02 11:38:20;;;;;;;6.10;2.10;;;10.10;99.90;;;;;;5032869;28;20029;-84
2023/01/02 11:41:02;;;;;;;5.68;1.90;;;10.10;99.90;;;;;;5015360;28;20095;-83
2023/01/02 11:43:48;;;;;;;4.95;1.90;;;10.00;99.90;;;;;;5049573;28;20035;-83
2023/01/02 11:46:32;;;;;;;4.95;1.80;;;10.00;99.90;;;;;;5016490;28;20044;-83
2023/01/02 11:49:11;;;;;;;4.93;2.13;;;10.00;99.90;;;;;;5051028;28;20028;-82
2023/01/02 11:51:38;;;;;;;8.27;3.10;;;10.00;99.90;;;;;;5049498;28;20486;-83
2023/01/02 11:54:10;;;;;;;5.57;2.50;;;9.90;99.90;;;;;;5031055;28;20458;-83
2023/01/02 11:56:39;;;;;;;4.65;2.95;;;9.90;99.90;;;;;;5049170;28;20032;-82
2023/01/02 11:59:20;;;;;;;8.23;2.90;;;9.90;99.90;;;;;;5048536;28;20029;-81
2023/01/02 12:01:53;;;;;;;7.32;3.78;;;9.90;99.90;;;;;;5049314;28;20033;-84
2023/01/02 12:04:18;;;;;;;6.97;3.70;;;9.90;99.90;;;;;;5031577;28;20052;-82
2023/01/02 12:07:23;;;;;;;7.05;3.67;;;10.00;99.90;;;;;;5048999;28;20481;-82
2023/01/02 12:10:13;;;;;;;7.28;3.47;;;10.00;99.90;;;;;;5047941;28;20044;-83
2023/01/02 12:12:50;;;;;;;5.95;3.97;;;10.00;99.90;;;;;;5027946;28;20029;-84
2023/01/02 12:15:42;;;;;;;7.10;3.00;;;10.00;99.90;;;;;;5051681;28;20183;-85
2023/01/02 12:18:29;;;;;;;7.07;4.53;;;10.00;99.90;;;;;;5051190;28;20032;-84
2023/01/02 12:21:23;;;;;;;7.80;4.82;;;9.90;99.90;;;;;;5013936;28;20412;-84
2023/01/02 12:24:17;;;;;;;8.85;4.35;;;9.90;99.90;;;;;;5044675;28;20031;-84
2023/01/02 12:27:09;;;;;;;9.45;4.53;;;9.90;99.90;;;;;;5036018;28;20096;-83
2023/01/02 12:29:41;;;;;;;7.13;4.22;;;9.90;99.90;;;;;;5033641;28;20056;-82
2023/01/02 12:32:43;;;;;;;8.38;5.10;;;9.80;99.90;;;;;;5033538;28;20024;-83
2023/01/02 12:35:24;;;;;;;5.80;3.50;;;9.90;99.90;;;;;;5026722;28;20402;-83
2023/01/02 12:37:57;;;;;;;8.30;4.40;;;9.90;99.90;;;;;;5037903;28;20072;-83
2023/01/02 12:40:45;;;;;;;9.25;4.50;;;10.00;99.90;;;;;;5039674;28;20021;-84
2023/01/02 12:43:52;;;;;;;9.23;4.70;;;10.00;99.90;;;;;;5047373;28;20076;-84
2023/01/02 12:46:29;;;;;;;6.53;3.75;;;9.90;99.90;;;;;;5039594;28;20021;-85
2023/01/02 12:49:31;;;;;;;13.80;4.75;;;9.90;99.90;;;;;;5049246;28;20086;-83
2023/01/02 12:52:18;;;;;;;7.05;4.45;;;10.00;99.90;;;;;;5033203;28;20469;-83
2023/01/02 12:54:55;;;;;;;7.25;3.67;;;9.90;99.90;;;;;;5016278;28;20025;-83
2023/01/02 12:57:23;;;;;;;6.32;3.45;;;9.90;99.90;;;;;;5033483;28;20037;-83
2023/01/02 13:00:14;;;;;;;8.70;4.20;;;10.00;99.90;;;;;;5032993;28;20095;-83
2023/01/02 13:02:58;;;;;;;5.85;4.18;;;10.00;99.90;;;;;;5050938;28;20028;-84
2023/01/02 13:05:46;;;;;;;8.20;4.72;;;10.00;99.90;;;;;;5050897;28;20052;-82
2023/01/02 13:08:26;;;;;;;8.27;4.70;;;9.90;99.90;;;;;;5050878;28;20029;-83
2023/01/02 13:10:53;;;;;;;9.20;5.10;;;9.90;99.90;;;;;;5012755;28;20025;-84
2023/01/02 13:13:24;;;;;;;8.82;5.22;;;9.80;99.90;;;;;;5046182;28;20017;-83